Time;durP1;ratioP1;P1;durP2;ratioP2;P2;SDS_P1;SDS_P2;PMS_P1;PMS_P2;Temp;Humidity;BMP_temperature;BMP_pressure;BME280_temperature;BME280_humidity;BME280_pressure;Samples;Min_cycle;Max_cycle;Signal;HPM_P1;HPM_P2
2023/11/25 00:01:07;;;;;;;94.20;46.63;;;10.70;99.90;;;;;;5042516;28;20060;-87
2023/11/25 00:03:34;;;;;;;102.88;59.10;;;10.80;99.90;;;;;;5046086;28;20049;-76
2023/11/25 00:06:02;;;;;;;35.15;24.55;;;10.90;99.90;;;;;;5058943;28;20025;-77
2023/11/25 00:08:29;;;;;;;28.45;19.05;;;11.00;99.90;;;;;;5058055;28;20443;-77
2023/11/25 00:10:57;;;;;;;37.88;18.70;;;10.90;99.90;;;;;;5040919;28;20041;-78
2023/11/25 00:13:24;;;;;;;36.85;18.70;;;10.70;99.90;;;;;;5059269;28;20041;-77
2023/11/25 00:15:52;;;;;;;28.75;18.38;;;10.60;99.90;;;;;;5050236;28;20045;-77
2023/11/25 00:18:20;;;;;;;34.40;19.92;;;10.50;99.90;;;;;;5059168;28;20115;-77
2023/11/25 00:20:47;;;;;;;35.05;19.40;;;10.40;99.90;;;;;;5063991;28;20037;-77
2023/11/25 00:23:14;;;;;;;30.98;18.63;;;10.40;99.90;;;;;;5045432;28;20484;-76
2023/11/25 00:25:42;;;;;;;33.03;21.08;;;10.30;99.90;;;;;;5061146;28;20135;-76
2023/11/25 00:28:10;;;;;;;28.10;18.27;;;10.30;99.90;;;;;;5036643;28;20044;-79
2023/11/25 00:30:38;;;;;;;29.00;17.88;;;10.30;99.90;;;;;;5060529;28;20040;-77
2023/11/25 00:33:06;;;;;;;31.85;19.08;;;10.20;99.90;;;;;;5051832;28;20858;-79
2023/11/25 00:35:33;;;;;;;28.45;18.52;;;10.20;99.90;;;;;;5055386;28;20043;-78
2023/11/25 00:38:01;;;;;;;30.85;19.20;;;10.20;99.90;;;;;;5048480;28;20428;-81
2023/11/25 00:40:28;;;;;;;32.38;19.20;;;10.20;99.90;;;;;;5055006;28;20037;-81
2023/11/25 00:42:56;;;;;;;30.23;19.63;;;10.30;99.90;;;;;;5054583;28;20400;-79
2023/11/25 00:45:26;;;;;;;33.67;19.98;;;10.30;99.90;;;;;;5062690;28;20044;-77
2023/11/25 00:47:56;;;;;;;28.20;17.65;;;10.30;99.90;;;;;;5052255;28;20430;-78
2023/11/25 00:50:24;;;;;;;36.65;21.65;;;10.30;99.90;;;;;;5057111;28;20041;-76
2023/11/25 00:52:52;;;;;;;30.65;20.77;;;10.50;99.90;;;;;;5060836;28;20044;-77
2023/11/25 00:55:20;;;;;;;35.80;19.33;;;10.40;99.90;;;;;;5048893;28;20116;-74
2023/11/25 00:57:47;;;;;;;31.23;20.80;;;10.40;99.90;;;;;;5056546;28;20041;-73
2023/11/25 01:00:15;;;;;;;31.17;20.20;;;10.30;99.90;;;;;;5058609;28;20505;-74
2023/11/25 01:02:45;;;;;;;31.02;19.00;;;10.50;99.90;;;;;;5060645;28;20742;-75
2023/11/25 01:05:13;;;;;;;29.55;18.95;;;10.60;99.90;;;;;;5059515;28;20111;-75
2023/11/25 01:07:40;;;;;;;27.80;17.80;;;10.60;99.90;;;;;;5060929;28;20036;-75
2023/11/25 01:10:08;;;;;;;28.50;18.10;;;10.70;99.90;;;;;;5059382;28;20055;-74
2023/11/25 01:12:35;;;;;;;28.60;17.85;;;10.70;99.90;;;;;;5064049;28;20400;-75
2023/11/25 01:15:04;;;;;;;32.90;21.83;;;10.70;99.90;;;;;;5062467;28;20115;-74
2023/11/25 01:17:31;;;;;;;41.20;24.63;;;10.80;99.90;;;;;;5061322;28;20120;-74
2023/11/25 01:19:59;;;;;;;33.90;20.98;;;10.90;99.90;;;;;;5063109;28;20033;-73
2023/11/25 01:22:26;;;;;;;29.08;20.50;;;10.90;99.90;;;;;;5050692;28;20472;-74
2023/11/25 01:24:53;;;;;;;29.35;18.35;;;10.90;99.90;;;;;;5059942;28;20068;-74
2023/11/25 01:27:23;;;;;;;27.85;18.88;;;10.80;99.90;;;;;;5055643;28;20427;-76
2023/11/25 01:29:51;;;;;;;27.00;17.13;;;10.70;99.90;;;;;;5051778;28;20037;-78
2023/11/25 01:32:19;;;;;;;28.02;18.73;;;10.80;99.90;;;;;;5042022;28;20385;-76
2023/11/25 01:34:47;;;;;;;25.73;17.25;;;10.80;99.90;;;;;;5054498;28;20484;-78
2023/11/25 01:37:15;;;;;;;27.60;18.05;;;10.70;99.90;;;;;;5050147;28;20038;-76
2023/11/25 01:39:43;;;;;;;29.35;17.70;;;10.80;99.90;;;;;;5059298;28;20033;-75
2023/11/25 01:42:10;;;;;;;29.00;18.70;;;10.80;99.90;;;;;;5062935;28;20044;-76
2023/11/25 01:44:37;;;;;;;30.77;19.17;;;10.80;99.90;;;;;;5058322;28;20068;-76
2023/11/25 01:47:05;;;;;;;31.27;17.92;;;10.80;99.90;;;;;;5058710;28;20040;-75
2023/11/25 01:49:33;;;;;;;31.00;19.10;;;10.80;99.90;;;;;;5044474;28;20559;-74
2023/11/25 01:52:05;;;;;;;32.17;19.77;;;10.80;99.90;;;;;;5041777;28;20036;-79
2023/11/25 01:54:33;;;;;;;31.48;19.60;;;10.80;99.90;;;;;;5058084;28;20045;-77
2023/11/25 01:57:02;;;;;;;28.60;18.98;;;10.70;99.90;;;;;;5063875;28;20036;-76
2023/11/25 01:59:30;;;;;;;31.45;20.08;;;10.70;99.90;;;;;;5054179;28;20492;-79
2023/11/25 02:02:00;;;;;;;29.95;19.73;;;10.70;99.90;;;;;;5043798;28;20033;-77
2023/11/25 02:04:28;;;;;;;28.30;19.38;;;10.80;99.90;;;;;;5049005;28;20535;-76
2023/11/25 02:06:55;;;;;;;30.20;20.30;;;10.80;99.90;;;;;;5062796;28;20119;-76
2023/11/25 02:09:24;;;;;;;32.33;20.92;;;10.80;99.90;;;;;;5056541;28;20056;-75
2023/11/25 02:11:59;;;;;;;35.05;20.23;;;10.70;99.90;;;;;;5054095;28;20583;-75
2023/11/25 02:14:27;;;;;;;35.08;21.95;;;10.70;99.90;;;;;;5056194;28;20123;-76
2023/11/25 02:16:59;;;;;;;32.78;21.05;;;10.70;99.90;;;;;;5062506;28;20040;-73
2023/11/25 02:19:28;;;;;;;34.95;21.20;;;10.70;99.90;;;;;;5054004;28;20123;-73
2023/11/25 02:21:56;;;;;;;31.15;20.67;;;10.60;99.90;;;;;;5037552;28;20377;-75
2023/11/25 02:24:26;;;;;;;31.63;20.00;;;10.60;99.90;;;;;;5055635;28;20052;-73
2023/11/25 02:27:03;;;;;;;33.92;21.35;;;10.70;99.90;;;;;;5057647;28;20043;-74
2023/11/25 02:29:35;;;;;;;36.08;21.80;;;10.70;99.90;;;;;;5035301;28;20091;-73
2023/11/25 02:32:03;;;;;;;36.65;22.33;;;10.60;99.90;;;;;;5039459;28;20041;-73
2023/11/25 02:34:30;;;;;;;35.70;22.90;;;10.60;99.90;;;;;;5055504;28;20443;-73
2023/11/25 02:36:59;;;;;;;33.67;20.60;;;10.60;99.90;;;;;;5062579;28;20086;-73
2023/11/25 02:39:34;;;;;;;35.47;21.88;;;10.50;99.90;;;;;;5035982;28;20033;-74
2023/11/25 02:42:01;;;;;;;30.15;20.90;;;10.50;99.90;;;;;;5064645;28;20049;-73
2023/11/25 02:44:28;;;;;;;31.65;20.95;;;10.50;99.90;;;;;;5058443;28;20041;-74
2023/11/25 02:46:55;;;;;;;32.00;20.77;;;10.50;99.90;;;;;;5061328;28;20091;-75
2023/11/25 02:49:23;;;;;;;33.67;21.15;;;10.50;99.90;;;;;;5062014;28;20156;-76
2023/11/25 02:51:51;;;;;;;32.03;19.80;;;10.50;99.90;;;;;;5064510;28;20036;-73
2023/11/25 02:54:20;;;;;;;32.42;19.25;;;10.40;99.90;;;;;;5037852;28;20135;-74
2023/11/25 02:56:48;;;;;;;24.38;17.95;;;10.40;99.90;;;;;;5066016;28;20041;-74
2023/11/25 02:59:17;;;;;;;30.48;19.90;;;10.40;99.90;;;;;;5057207;28;20455;-74
2023/11/25 03:01:51;;;;;;;28.35;19.77;;;10.30;99.90;;;;;;5064233;28;20032;-74
2023/11/25 03:04:20;;;;;;;31.58;19.65;;;10.20;99.90;;;;;;5062806;28;20040;-74
2023/11/25 03:06:51;;;;;;;27.42;18.13;;;10.10;99.90;;;;;;5054795;28;20094;-74
2023/11/25 03:09:19;;;;;;;28.85;20.13;;;10.10;99.90;;;;;;5055827;28;20499;-74
2023/11/25 03:11:46;;;;;;;25.73;18.20;;;10.10;99.90;;;;;;5061892;28;20037;-75
2023/11/25 03:14:15;;;;;;;29.65;19.90;;;10.10;99.90;;;;;;5040409;28;20041;-73
2023/11/25 03:16:43;;;;;;;34.13;19.65;;;10.10;99.90;;;;;;5059354;28;20048;-78
2023/11/25 03:19:11;;;;;;;32.85;19.80;;;10.10;99.90;;;;;;5024976;28;20440;-74
2023/11/25 03:21:39;;;;;;;33.00;21.02;;;10.20;99.90;;;;;;5066760;28;20040;-77
2023/11/25 03:24:07;;;;;;;37.80;21.15;;;10.20;99.90;;;;;;5056404;28;20069;-75
2023/11/25 03:26:35;;;;;;;30.55;20.45;;;10.30;99.90;;;;;;5055201;28;20106;-76
2023/11/25 03:29:02;;;;;;;35.58;21.77;;;10.30;99.90;;;;;;5042481;28;20037;-75
2023/11/25 03:31:30;;;;;;;35.00;21.98;;;10.30;99.90;;;;;;5036807;28;20120;-74
2023/11/25 03:33:57;;;;;;;34.00;21.63;;;10.30;99.90;;;;;;5059880;28;20039;-79
2023/11/25 03:36:24;;;;;;;35.88;21.98;;;10.00;99.90;;;;;;5038918;28;20045;-75
2023/11/25 03:38:52;;;;;;;36.13;22.30;;;9.80;99.90;;;;;;5052606;28;20036;-74
2023/11/25 03:41:19;;;;;;;36.50;22.95;;;9.70;99.90;;;;;;5056716;28;20033;-74
2023/11/25 03:43:47;;;;;;;32.67;20.77;;;9.80;99.90;;;;;;5041240;28;20053;-74
2023/11/25 03:46:14;;;;;;;31.27;19.38;;;9.80;99.90;;;;;;5042355;28;20040;-77
2023/11/25 03:48:41;;;;;;;33.30;21.25;;;9.80;99.90;;;;;;5055025;28;20052;-75
2023/11/25 03:51:12;;;;;;;31.92;17.63;;;9.80;99.90;;;;;;5057396;28;20029;-75
2023/11/25 03:53:39;;;;;;;;;;;9.80;99.90;;;;;;5054223;28;20068;-77
2023/11/25 03:56:07;;;;;;;7.55;5.40;;;9.30;99.90;;;;;;5051408;28;19925;-73
2023/11/25 03:58:35;;;;;;;7.10;5.13;;;9.00;99.90;;;;;;5037385;28;20064;-76
2023/11/25 04:01:03;;;;;;;6.45;4.63;;;8.80;99.90;;;;;;5054504;28;20037;-75
2023/11/25 04:03:30;;;;;;;4.85;4.07;;;8.70;99.90;;;;;;5058262;28;20535;-77
2023/11/25 04:05:57;;;;;;;4.80;4.03;;;8.40;99.90;;;;;;5052119;28;20124;-78
2023/11/25 04:08:25;;;;;;;5.15;3.83;;;8.20;99.90;;;;;;5018195;28;20619;-83
2023/11/25 04:10:52;;;;;;;4.00;3.60;;;8.00;99.90;;;;;;5056058;28;20047;-80
2023/11/25 04:13:20;;;;;;;4.07;3.67;;;7.90;99.90;;;;;;5058543;28;20056;-83
2023/11/25 04:15:47;;;;;;;4.47;3.70;;;7.80;99.90;;;;;;5055100;28;20040;-82
2023/11/25 04:18:15;;;;;;;4.10;3.70;;;7.60;99.90;;;;;;5051781;28;20071;-79
2023/11/25 04:20:43;;;;;;;4.45;4.05;;;7.40;99.90;;;;;;5062803;28;20036;-76
2023/11/25 04:23:14;;;;;;;5.53;3.83;;;7.40;99.90;;;;;;5041731;28;20045;-80
2023/11/25 04:25:43;;;;;;;4.63;3.90;;;7.20;99.90;;;;;;5044732;28;20428;-82
2023/11/25 04:28:12;;;;;;;3.95;3.65;;;7.20;99.90;;;;;;5058104;28;20419;-74
2023/11/25 04:30:39;;;;;;;4.40;4.00;;;7.10;99.90;;;;;;5043884;28;20123;-83
2023/11/25 04:33:10;;;;;;;4.50;4.10;;;7.10;99.90;;;;;;5056076;28;20056;-74
2023/11/25 04:35:38;;;;;;;4.30;3.90;;;7.00;99.90;;;;;;5059834;28;20052;-75
2023/11/25 04:38:05;;;;;;;4.30;3.90;;;6.90;99.90;;;;;;5060392;28;20036;-77
2023/11/25 04:40:32;;;;;;;4.25;3.85;;;6.80;99.90;;;;;;5038563;28;20046;-80
2023/11/25 04:43:00;;;;;;;4.30;3.90;;;6.80;99.90;;;;;;5056305;28;20044;-74
2023/11/25 04:45:27;;;;;;;4.30;3.90;;;6.70;99.90;;;;;;5057179;28;20055;-78
2023/11/25 04:47:54;;;;;;;4.30;3.90;;;6.60;99.90;;;;;;5058102;28;20388;-79
2023/11/25 04:50:26;;;;;;;3.80;3.50;;;6.70;99.90;;;;;;5044584;28;20562;-77
2023/11/25 04:52:53;;;;;;;4.18;3.80;;;6.70;99.90;;;;;;5060802;28;20033;-76
2023/11/25 04:55:24;;;;;;;4.40;4.00;;;6.70;99.90;;;;;;5060743;28;20443;-75
2023/11/25 04:57:51;;;;;;;4.38;3.97;;;6.90;99.90;;;;;;5051866;28;20370;-76
2023/11/25 05:00:19;;;;;;;4.38;4.00;;;6.80;99.90;;;;;;5059080;28;20041;-74
2023/11/25 05:02:47;;;;;;;4.00;3.70;;;6.70;99.90;;;;;;5061694;28;20029;-75
2023/11/25 05:05:14;;;;;;;4.40;4.00;;;6.80;99.90;;;;;;5061936;28;20045;-75
2023/11/25 05:07:41;;;;;;;4.10;3.80;;;6.90;99.90;;;;;;5063812;28;20116;-76
2023/11/25 05:10:09;;;;;;;4.00;3.70;;;6.80;99.90;;;;;;5057350;28;20103;-75
2023/11/25 05:12:38;;;;;;;4.47;3.90;;;6.70;99.90;;;;;;5059640;28;20091;-78
2023/11/25 05:15:08;;;;;;;4.40;4.00;;;6.70;99.90;;;;;;5058361;28;20041;-74
2023/11/25 05:17:37;;;;;;;4.10;3.80;;;6.70;99.90;;;;;;5057493;28;20033;-75
2023/11/25 05:20:09;;;;;;;4.10;3.70;;;6.70;99.90;;;;;;5059234;28;20075;-75
2023/11/25 05:22:37;;;;;;;4.30;3.90;;;7.00;99.90;;;;;;5059624;28;20087;-76
2023/11/25 05:25:05;;;;;;;4.10;3.70;;;6.90;99.90;;;;;;5056237;28;20076;-74
2023/11/25 05:27:33;;;;;;;5.25;4.03;;;6.80;99.90;;;;;;5041898;28;20098;-76
2023/11/25 05:30:00;;;;;;;4.13;3.72;;;6.70;99.90;;;;;;5062542;28;20037;-74
2023/11/25 05:32:28;;;;;;;4.00;3.60;;;6.90;99.90;;;;;;5019416;28;20060;-73
2023/11/25 05:34:56;;;;;;;4.28;3.90;;;7.20;99.90;;;;;;5060652;28;20040;-74
2023/11/25 05:37:23;;;;;;;3.90;3.60;;;7.20;99.90;;;;;;5060946;28;20119;-75
2023/11/25 05:39:50;;;;;;;4.00;3.70;;;7.20;99.90;;;;;;5057633;28;20044;-75
2023/11/25 05:42:27;;;;;;;3.90;3.60;;;7.20;99.90;;;;;;5061216;28;20049;-75
2023/11/25 05:44:55;;;;;;;6.03;3.83;;;7.20;99.90;;;;;;5059498;28;20044;-75
2023/11/25 05:47:24;;;;;;;3.95;3.65;;;7.10;99.90;;;;;;5054907;28;20037;-73
2023/11/25 05:49:51;;;;;;;4.00;3.70;;;7.20;99.90;;;;;;5063270;28;20036;-72
2023/11/25 05:52:19;;;;;;;3.92;3.60;;;7.20;99.90;;;;;;5061722;28;20123;-74
2023/11/25 05:54:46;;;;;;;3.90;3.60;;;7.00;99.90;;;;;;5063817;28;20643;-73
2023/11/25 05:57:14;;;;;;;4.00;3.70;;;6.90;99.90;;;;;;5026817;28;20090;-72
2023/11/25 05:59:41;;;;;;;3.95;3.65;;;6.80;99.90;;;;;;5058939;28;20046;-72
2023/11/25 06:02:08;;;;;;;3.80;3.50;;;6.60;99.90;;;;;;5060380;28;20042;-72
2023/11/25 06:04:36;;;;;;;4.00;3.70;;;6.40;99.90;;;;;;5059615;28;20048;-72
2023/11/25 06:07:04;;;;;;;3.78;3.47;;;6.40;99.90;;;;;;5044863;28;20098;-74
2023/11/25 06:09:31;;;;;;;4.25;3.85;;;6.50;99.90;;;;;;5056000;28;20118;-72
2023/11/25 06:11:59;;;;;;;4.00;3.70;;;6.50;99.90;;;;;;5057152;28;20040;-73
2023/11/25 06:14:26;;;;;;;3.90;3.60;;;6.30;99.90;;;;;;5041864;28;20143;-73
2023/11/25 06:16:56;;;;;;;4.15;3.83;;;6.10;99.90;;;;;;5058268;28;20112;-75
2023/11/25 06:19:24;;;;;;;4.10;3.80;;;5.90;99.90;;;;;;5039583;28;20045;-71
2023/11/25 06:21:54;;;;;;;4.30;3.90;;;5.80;99.90;;;;;;5061187;28;20484;-72
2023/11/25 06:24:21;;;;;;;4.13;3.78;;;5.80;99.90;;;;;;5024425;28;20041;-74
2023/11/25 06:26:50;;;;;;;4.25;3.85;;;5.70;99.90;;;;;;5057329;28;20583;-75
2023/11/25 06:29:17;;;;;;;4.10;3.80;;;5.60;99.90;;;;;;5060848;28;20045;-74
2023/11/25 06:31:46;;;;;;;3.90;3.60;;;5.60;99.90;;;;;;5057845;28;20120;-72
2023/11/25 06:34:13;;;;;;;4.50;4.10;;;5.50;99.90;;;;;;5054061;28;20409;-72
2023/11/25 06:36:41;;;;;;;4.55;4.15;;;5.50;99.90;;;;;;5060760;28;20041;-72
2023/11/25 06:39:13;;;;;;;4.20;3.90;;;5.40;99.90;;;;;;5055049;28;20168;-72
2023/11/25 06:41:48;;;;;;;4.53;4.00;;;5.40;99.90;;;;;;5057293;28;20029;-72
2023/11/25 06:44:16;;;;;;;4.35;3.95;;;5.40;99.90;;;;;;5060138;28;20248;-73
2023/11/25 06:46:44;;;;;;;4.32;3.92;;;5.40;99.90;;;;;;5059778;28;20116;-74
2023/11/25 06:49:15;;;;;;;4.10;3.80;;;5.50;99.90;;;;;;5039773;28;20140;-73
2023/11/25 06:51:42;;;;;;;;;;;5.60;99.90;;;;;;5063377;28;20033;-73
2023/11/25 06:54:11;;;;;;;4.30;3.90;;;5.60;99.90;;;;;;5061191;28;20363;-73
2023/11/25 06:56:38;;;;;;;4.10;3.80;;;5.50;99.90;;;;;;5061788;28;20506;-74
2023/11/25 06:59:06;;;;;;;4.40;4.00;;;5.40;99.90;;;;;;5037137;28;20033;-75
2023/11/25 07:01:34;;;;;;;4.20;3.80;;;5.60;99.90;;;;;;5060507;28;20116;-75
2023/11/25 07:04:05;;;;;;;4.70;4.30;;;5.70;99.90;;;;;;5047006;28;20040;-74
2023/11/25 07:06:33;;;;;;;4.40;4.00;;;5.70;99.90;;;;;;5037688;28;20072;-74
2023/11/25 07:09:00;;;;;;;4.40;4.00;;;5.80;99.90;;;;;;5035552;28;20407;-75
2023/11/25 07:11:30;;;;;;;4.30;3.90;;;5.60;99.90;;;;;;5056211;28;20036;-74
2023/11/25 07:13:57;;;;;;;4.50;4.10;;;5.60;99.90;;;;;;5060874;28;20087;-73
2023/11/25 07:16:25;;;;;;;4.50;4.10;;;5.60;99.90;;;;;;5061523;28;20052;-74
2023/11/25 07:18:52;;;;;;;4.60;4.20;;;5.50;99.90;;;;;;5058869;28;20098;-75
2023/11/25 07:21:20;;;;;;;4.28;3.88;;;5.50;99.90;;;;;;5039800;28;20044;-74
2023/11/25 07:23:49;;;;;;;4.40;4.00;;;5.50;99.90;;;;;;5062927;28;20098;-74
2023/11/25 07:26:16;;;;;;;4.32;3.92;;;5.50;99.90;;;;;;5055472;28;20134;-74
2023/11/25 07:28:44;;;;;;;4.47;4.07;;;5.30;99.90;;;;;;5059212;28;20041;-75
2023/11/25 07:31:11;;;;;;;4.97;4.28;;;5.50;99.90;;;;;;5056985;28;20033;-74
2023/11/25 07:33:39;;;;;;;4.30;3.90;;;5.30;99.90;;;;;;5057132;28;20041;-75
2023/11/25 07:36:06;;;;;;;4.60;4.20;;;5.30;99.90;;;;;;5055673;28;20037;-74
2023/11/25 07:38:34;;;;;;;4.40;4.00;;;5.10;99.90;;;;;;5060893;28;20029;-75
2023/11/25 07:41:01;;;;;;;5.15;4.00;;;5.00;99.90;;;;;;5054806;28;20055;-74
2023/11/25 07:43:28;;;;;;;4.50;4.10;;;5.00;99.90;;;;;;5055280;28;20058;-74
2023/11/25 07:45:56;;;;;;;4.40;4.00;;;5.10;99.90;;;;;;5042878;28;20046;-75
2023/11/25 07:48:23;;;;;;;4.70;4.30;;;5.00;99.90;;;;;;5054093;28;20052;-74
2023/11/25 07:50:50;;;;;;;4.50;4.10;;;5.10;99.90;;;;;;5063131;28;20417;-75
2023/11/25 07:53:22;;;;;;;4.43;4.03;;;5.20;99.90;;;;;;5042642;28;20074;-75
2023/11/25 07:55:51;;;;;;;4.97;4.47;;;5.20;99.90;;;;;;5039616;28;20083;-75
2023/11/25 07:58:19;;;;;;;5.07;4.55;;;5.20;99.90;;;;;;5043847;28;20043;-75
2023/11/25 08:00:46;;;;;;;5.32;4.68;;;5.10;99.90;;;;;;5061164;28;20043;-77
2023/11/25 08:03:14;;;;;;;4.80;4.40;;;5.20;99.90;;;;;;5059423;28;20115;-73
2023/11/25 08:05:41;;;;;;;9.82;6.53;;;5.00;99.90;;;;;;5032086;28;20092;-71
2023/11/25 08:08:09;;;;;;;20.27;12.93;;;5.30;99.90;;;;;;5058095;28;20041;-72
2023/11/25 08:10:36;;;;;;;5.40;4.72;;;5.30;99.90;;;;;;5061361;28;20040;-74
2023/11/25 08:13:03;;;;;;;4.80;4.40;;;5.00;99.90;;;;;;5055188;28;20038;-77
2023/11/25 08:15:31;;;;;;;5.82;5.15;;;4.90;99.90;;;;;;5036622;28;20055;-73
2023/11/25 08:17:59;;;;;;;5.30;4.80;;;4.80;99.90;;;;;;5040746;28;20041;-75
2023/11/25 08:20:27;;;;;;;4.82;4.43;;;4.70;99.90;;;;;;5028475;28;20049;-74
2023/11/25 08:22:54;;;;;;;4.70;4.30;;;4.70;99.90;;;;;;5039696;28;20045;-76
2023/11/25 08:25:22;;;;;;;4.68;4.28;;;4.70;99.90;;;;;;5018198;28;20112;-76
2023/11/25 08:27:51;;;;;;;4.70;4.30;;;4.70;99.90;;;;;;5035142;28;20392;-73
2023/11/25 08:30:18;;;;;;;5.18;4.40;;;4.80;99.90;;;;;;5029939;28;20042;-74
2023/11/25 08:32:46;;;;;;;4.90;4.40;;;4.80;99.90;;;;;;5030503;28;20108;-75
2023/11/25 08:35:14;;;;;;;4.50;4.10;;;4.80;99.90;;;;;;5014901;28;20033;-73
2023/11/25 08:37:41;;;;;;;4.57;4.18;;;4.80;99.90;;;;;;5019158;28;20037;-73
2023/11/25 08:40:15;;;;;;;4.82;4.38;;;4.70;99.90;;;;;;5042893;28;20034;-73
2023/11/25 08:42:45;;;;;;;13.70;9.07;;;4.60;99.90;;;;;;5040046;28;20033;-74
2023/11/25 08:45:13;;;;;;;26.80;14.65;;;5.00;99.90;;;;;;5002848;28;20048;-72
2023/11/25 08:47:43;;;;;;;6.10;5.53;;;5.20;99.90;;;;;;5029866;28;20038;-75
2023/11/25 08:50:15;;;;;;;5.85;5.25;;;4.90;99.90;;;;;;5025972;28;20129;-72
2023/11/25 08:52:46;;;;;;;5.20;4.70;;;4.90;99.90;;;;;;5024509;28;20042;-75
2023/11/25 08:55:17;;;;;;;5.40;4.75;;;4.80;99.90;;;;;;5022342;28;20123;-73
2023/11/25 08:57:47;;;;;;;5.45;4.60;;;4.70;99.90;;;;;;5018442;28;20063;-73
2023/11/25 09:00:18;;;;;;;5.18;4.68;;;4.80;99.90;;;;;;5026463;28;20040;-73
2023/11/25 09:02:48;;;;;;;4.90;4.50;;;4.70;99.90;;;;;;5043565;28;20512;-74
2023/11/25 09:05:18;;;;;;;4.88;4.38;;;4.60;99.90;;;;;;5039314;28;20041;-74
2023/11/25 09:07:45;;;;;;;4.88;4.47;;;4.60;99.90;;;;;;5042033;28;20037;-74
2023/11/25 09:10:13;;;;;;;5.57;4.68;;;4.60;99.90;;;;;;5038051;28;20053;-72
2023/11/25 09:12:40;;;;;;;4.90;4.40;;;4.60;99.90;;;;;;4999942;28;20073;-72
2023/11/25 09:15:08;;;;;;;4.93;4.43;;;4.70;99.90;;;;;;5019664;28;20043;-75
2023/11/25 09:17:39;;;;;;;5.13;4.63;;;4.80;99.90;;;;;;4998541;28;20046;-74
2023/11/25 09:20:12;;;;;;;6.28;4.65;;;4.70;99.90;;;;;;5017430;28;20029;-69
2023/11/25 09:22:41;;;;;;;6.65;4.60;;;4.70;99.90;;;;;;5034060;28;20045;-78
2023/11/25 09:25:12;;;;;;;18.05;11.00;;;4.70;99.90;;;;;;5022763;28;20063;-77
2023/11/25 09:27:41;;;;;;;50.53;24.13;;;4.90;99.90;;;;;;5058422;28;20136;-75
2023/11/25 09:30:11;;;;;;;31.42;20.83;;;5.30;99.90;;;;;;5041684;28;20122;-75
2023/11/25 09:32:44;;;;;;;23.73;15.35;;;5.20;99.90;;;;;;5040776;28;20087;-80
2023/11/25 09:35:12;;;;;;;5.72;5.20;;;5.10;99.90;;;;;;5060751;28;20041;-75
2023/11/25 09:37:42;;;;;;;5.13;4.60;;;4.50;99.90;;;;;;5064564;28;20043;-77
2023/11/25 09:40:14;;;;;;;5.30;4.78;;;4.40;99.90;;;;;;5039332;28;20068;-79
2023/11/25 09:42:44;;;;;;;5.32;4.70;;;4.50;99.90;;;;;;5063333;28;20047;-77
2023/11/25 09:45:14;;;;;;;4.97;4.50;;;4.50;99.90;;;;;;5065384;28;20043;-76
2023/11/25 09:47:43;;;;;;;5.35;4.70;;;4.40;99.90;;;;;;5046148;28;20037;-76
2023/11/25 09:50:13;;;;;;;5.03;4.55;;;4.40;99.90;;;;;;5052085;28;20041;-74
2023/11/25 09:52:52;;;;;;;8.68;5.82;;;4.20;99.90;;;;;;5054519;28;20032;-77
2023/11/25 09:55:24;;;;;;;4.88;4.43;;;4.30;99.90;;;;;;5057100;28;20055;-76
2023/11/25 09:58:02;;;;;;;4.95;4.55;;;4.30;99.90;;;;;;5057435;28;20102;-74
2023/11/25 10:00:30;;;;;;;5.20;4.70;;;4.40;99.90;;;;;;5040377;28;20032;-78
2023/11/25 10:03:01;;;;;;;5.00;4.50;;;4.50;99.90;;;;;;5052372;28;20096;-74
2023/11/25 10:05:32;;;;;;;4.80;4.40;;;4.40;99.90;;;;;;5040019;28;20454;-78
2023/11/25 10:08:04;;;;;;;5.45;4.85;;;4.50;99.90;;;;;;5023761;28;20518;-74
2023/11/25 10:10:32;;;;;;;5.68;4.75;;;4.50;99.90;;;;;;5055355;28;20097;-79
2023/11/25 10:13:00;;;;;;;8.82;6.35;;;4.40;99.90;;;;;;5046026;28;20043;-77
2023/11/25 10:15:28;;;;;;;4.93;4.53;;;4.30;99.90;;;;;;5055824;28;20075;-76
2023/11/25 10:17:55;;;;;;;5.07;4.57;;;4.20;99.90;;;;;;5034225;28;20124;-76
2023/11/25 10:20:23;;;;;;;5.68;4.90;;;4.20;99.90;;;;;;5042036;28;20046;-75
2023/11/25 10:22:53;;;;;;;5.15;4.65;;;4.20;99.90;;;;;;5031223;28;20385;-77
2023/11/25 10:25:21;;;;;;;;;;;4.20;99.90;;;;;;5033240;28;20049;-76
2023/11/25 10:27:53;;;;;;;4.78;4.38;;;4.10;99.90;;;;;;5055345;28;20042;-75
2023/11/25 10:30:21;;;;;;;4.82;4.32;;;4.20;99.90;;;;;;5055872;28;20129;-77
2023/11/25 10:32:54;;;;;;;4.85;4.45;;;4.20;99.90;;;;;;5054053;28;20033;-75
2023/11/25 10:35:24;;;;;;;;;;;4.20;99.90;;;;;;5049988;28;20042;-75
2023/11/25 10:37:52;;;;;;;5.43;4.90;;;4.20;99.90;;;;;;5052809;28;19921;-74
2023/11/25 10:40:21;;;;;;;4.97;4.53;;;4.20;99.90;;;;;;5054200;28;20036;-76
2023/11/25 10:42:50;;;;;;;5.30;4.80;;;4.30;99.90;;;;;;5033857;28;20069;-76
2023/11/25 10:45:21;;;;;;;5.60;4.95;;;4.40;99.90;;;;;;5035790;28;20286;-76
2023/11/25 10:47:49;;;;;;;7.00;4.70;;;4.40;99.90;;;;;;5062124;28;20042;-76
2023/11/25 10:50:16;;;;;;;5.30;4.80;;;4.50;99.90;;;;;;5052309;28;20037;-74
2023/11/25 10:52:46;;;;;;;5.20;4.70;;;4.50;99.90;;;;;;5051160;28;20111;-74
2023/11/25 10:55:15;;;;;;;8.90;5.80;;;4.60;99.90;;;;;;5033606;28;20052;-73
2023/11/25 10:57:45;;;;;;;78.13;36.78;;;4.90;99.90;;;;;;5058075;28;20045;-75
2023/11/25 11:00:13;;;;;;;10.30;8.75;;;5.10;99.90;;;;;;5029896;28;20044;-74
2023/11/25 11:02:44;;;;;;;13.88;6.88;;;4.90;99.90;;;;;;5065124;28;20036;-75
2023/11/25 11:05:18;;;;;;;9.18;6.38;;;5.00;99.90;;;;;;5035183;28;20135;-75
2023/11/25 11:07:54;;;;;;;6.47;5.68;;;4.80;99.90;;;;;;5044780;28;20033;-74
2023/11/25 11:10:36;;;;;;;9.35;6.07;;;4.80;99.90;;;;;;5031544;28;20439;-71
2023/11/25 11:13:07;;;;;;;7.80;5.63;;;4.80;99.90;;;;;;5059841;28;20496;-70
2023/11/25 11:15:37;;;;;;;6.88;5.28;;;4.50;99.90;;;;;;5031774;28;20070;-74
2023/11/25 11:18:17;;;;;;;6.70;5.65;;;4.50;99.90;;;;;;5054760;28;20049;-73
2023/11/25 11:20:46;;;;;;;5.30;4.80;;;4.50;99.90;;;;;;5050046;28;20052;-73
2023/11/25 11:23:21;;;;;;;13.63;9.40;;;4.60;99.90;;;;;;5061419;28;20056;-74
2023/11/25 11:25:59;;;;;;;24.13;13.32;;;4.80;99.90;;;;;;5051309;28;20052;-73
2023/11/25 11:28:48;;;;;;;13.63;10.35;;;4.90;99.90;;;;;;5046825;28;20091;-74
2023/11/25 11:31:37;;;;;;;16.75;11.80;;;4.70;99.90;;;;;;5048077;28;20048;-72
2023/11/25 11:34:05;;;;;;;6.45;5.85;;;4.80;99.90;;;;;;5037119;28;20033;-73
2023/11/25 11:36:32;;;;;;;8.48;6.30;;;4.60;99.90;;;;;;5053120;28;20051;-75
2023/11/25 11:39:01;;;;;;;6.03;5.43;;;4.60;99.90;;;;;;5037304;28;20082;-74
2023/11/25 11:41:29;;;;;;;5.20;4.68;;;4.40;99.90;;;;;;5057814;28;20045;-72
2023/11/25 11:44:04;;;;;;;6.07;5.18;;;4.40;99.90;;;;;;5039136;28;20385;-74
2023/11/25 11:46:41;;;;;;;5.15;4.65;;;4.50;99.90;;;;;;5042849;28;20397;-74
2023/11/25 11:49:12;;;;;;;6.20;5.28;;;4.30;99.90;;;;;;5047823;28;20044;-73
2023/11/25 11:52:00;;;;;;;5.55;5.00;;;4.30;99.90;;;;;;5052457;28;20118;-74
2023/11/25 11:54:28;;;;;;;6.60;5.20;;;4.30;99.90;;;;;;5058041;28;20648;-74
2023/11/25 11:57:13;;;;;;;8.82;5.05;;;4.30;99.90;;;;;;5038886;28;20056;-75
2023/11/25 11:59:59;;;;;;;7.40;5.93;;;4.20;99.90;;;;;;5054374;28;20131;-73
2023/11/25 12:02:31;;;;;;;6.85;5.10;;;4.20;99.90;;;;;;5061787;28;20047;-72
2023/11/25 12:05:15;;;;;;;6.05;5.20;;;4.00;99.90;;;;;;5030901;28;20025;-73
2023/11/25 12:07:43;;;;;;;5.97;5.15;;;4.00;99.90;;;;;;5058966;28;20068;-71
2023/11/25 12:10:10;;;;;;;5.65;5.05;;;3.90;99.90;;;;;;5042213;28;20496;-72
2023/11/25 12:12:41;;;;;;;5.90;5.30;;;3.90;99.90;;;;;;5027957;28;20136;-74
2023/11/25 12:15:09;;;;;;;6.20;5.60;;;3.80;99.90;;;;;;5058089;28;20063;-71
2023/11/25 12:17:39;;;;;;;5.75;5.22;;;3.80;99.90;;;;;;5043940;28;20137;-73
2023/11/25 12:20:09;;;;;;;7.07;5.78;;;3.90;99.90;;;;;;5058282;28;20411;-74
2023/11/25 12:22:36;;;;;;;6.45;5.38;;;3.80;99.90;;;;;;5051623;28;20068;-73
2023/11/25 12:25:04;;;;;;;6.57;5.68;;;3.80;99.90;;;;;;5059596;28;20060;-74
2023/11/25 12:27:33;;;;;;;5.65;5.13;;;3.90;99.90;;;;;;5057310;28;20131;-73
2023/11/25 12:30:00;;;;;;;5.60;5.07;;;3.70;99.90;;;;;;5057755;28;20120;-74
2023/11/25 12:32:28;;;;;;;5.80;5.25;;;3.60;99.90;;;;;;5033458;28;20427;-74
2023/11/25 12:34:55;;;;;;;6.03;5.53;;;3.50;99.90;;;;;;5053258;28;20044;-74
2023/11/25 12:37:23;;;;;;;5.47;4.97;;;3.70;99.90;;;;;;5046673;28;20039;-73
2023/11/25 12:39:50;;;;;;;5.97;5.30;;;3.70;99.90;;;;;;5047139;28;20040;-74
2023/11/25 12:42:23;;;;;;;6.38;5.28;;;3.70;99.90;;;;;;5038479;28;20029;-74
2023/11/25 12:44:50;;;;;;;6.07;5.55;;;3.70;99.90;;;;;;5025950;28;20037;-74
2023/11/25 12:47:18;;;;;;;6.28;5.63;;;3.80;99.90;;;;;;5037067;28;20072;-74
2023/11/25 12:49:47;;;;;;;5.90;5.30;;;3.80;99.90;;;;;;5039972;28;20081;-72
2023/11/25 12:52:19;;;;;;;5.82;5.22;;;3.80;99.90;;;;;;5041834;28;20538;-74
2023/11/25 12:54:49;;;;;;;5.57;5.07;;;3.80;99.90;;;;;;5042986;28;20082;-73
2023/11/25 12:57:17;;;;;;;5.72;5.22;;;3.70;99.90;;;;;;5023662;28;20488;-73